Time;durP1;ratioP1;P1;durP2;ratioP2;P2;SDS_P1;SDS_P2;PMS_P1;PMS_P2;Temp;Humidity;BMP_temperature;BMP_pressure;BME280_temperature;BME280_humidity;BME280_pressure;Samples;Min_cycle;Max_cycle;Signal;HPM_P1;HPM_P2
2022/03/26 00:00:24;;;;;;;39.00;28.35;;;;;;;13.67;46.69;99303.19;4916410;29;20403;-49
2022/03/26 00:02:51;;;;;;;36.15;26.52;;;;;;;13.54;46.38;99309.28;4916143;29;20024;-49
2022/03/26 00:05:17;;;;;;;43.85;27.95;;;;;;;13.24;47.72;99311.47;4914738;29;20029;-49
2022/03/26 00:07:44;;;;;;;36.20;24.67;;;;;;;13.19;47.65;99304.19;4914745;29;20020;-49
2022/03/26 00:10:10;;;;;;;32.55;24.80;;;;;;;13.10;47.61;99316.75;4914573;29;20031;-49
2022/03/26 00:12:36;;;;;;;37.45;26.25;;;;;;;13.10;48.05;99318.56;4915988;29;20127;-49
2022/03/26 00:15:04;;;;;;;34.45;26.23;;;;;;;13.28;47.31;99310.06;4914607;29;20046;-50
2022/03/26 00:17:30;;;;;;;38.40;27.20;;;;;;;13.17;47.61;99307.03;4915956;29;20036;-49
2022/03/26 00:19:56;;;;;;;39.30;32.45;;;;;;;13.10;47.52;99316.75;4914061;29;20106;-50
2022/03/26 00:22:23;;;;;;;35.80;26.95;;;;;;;13.00;48.00;99311.06;4914356;29;20502;-48
2022/03/26 00:24:49;;;;;;;33.92;27.08;;;;;;;12.97;47.92;99307.00;4916173;29;20375;-49
2022/03/26 00:27:15;;;;;;;37.15;27.45;;;;;;;12.95;47.68;99319.56;4914492;29;20051;-48
2022/03/26 00:29:41;;;;;;;49.45;40.05;;;;;;;12.78;48.38;99320.97;4914405;29;20032;-50
2022/03/26 00:32:07;;;;;;;91.45;81.63;;;;;;;12.68;48.51;99326.59;4915777;29;20030;-49
2022/03/26 00:34:33;;;;;;;117.28;105.15;;;;;;;12.38;48.83;99321.63;4915787;29;20047;-50
2022/03/26 00:37:00;;;;;;;109.75;94.40;;;;;;;12.03;49.47;99322.66;4914383;29;20082;-50
2022/03/26 00:39:26;;;;;;;95.95;80.93;;;;;;;11.63;50.80;99325.00;4914443;29;20080;-49
2022/03/26 00:41:52;;;;;;;44.20;39.40;;;;;;;11.48;51.57;99327.72;4915627;29;20024;-49
2022/03/26 00:44:18;;;;;;;43.75;36.05;;;;;;;11.49;51.25;99321.44;4914302;29;20027;-49
2022/03/26 00:46:47;;;;;;;45.13;34.20;;;;;;;11.48;51.67;99328.53;4915577;29;20081;-49
2022/03/26 00:49:14;;;;;;;37.75;30.25;;;;;;;11.50;51.72;99321.25;4915410;29;20398;-50
2022/03/26 00:51:40;;;;;;;44.20;29.40;;;;;;;11.37;51.45;99326.44;4914254;29;20518;-49
2022/03/26 00:54:08;;;;;;;40.30;29.40;;;;;;;11.00;52.29;99317.78;4915489;29;20554;-50
2022/03/26 00:56:35;;;;;;;39.85;28.25;;;;;;;10.61;52.88;99323.47;4914250;29;20036;-49
2022/03/26 00:59:01;;;;;;;35.95;28.00;;;;;;;10.28;53.38;99322.03;4915462;29;20027;-49
2022/03/26 01:01:26;;;;;;;37.70;30.45;;;;;;;10.15;54.39;99325.28;4914162;29;20028;-50
2022/03/26 01:03:52;;;;;;;34.78;27.15;;;;;;;10.07;54.24;99321.94;4915427;29;20021;-49
2022/03/26 01:06:18;;;;;;;39.55;27.98;;;;;;;9.97;55.39;99324.84;4914346;29;20533;-49
2022/03/26 01:08:45;;;;;;;39.72;29.35;;;;;;;9.93;55.59;99323.56;4915419;29;20499;-49
2022/03/26 01:11:11;;;;;;;36.15;27.73;;;;;;;9.87;55.70;99322.47;4913921;29;20063;-50
2022/03/26 01:13:38;;;;;;;38.92;27.88;;;;;;;10.01;55.62;99320.84;4914031;29;20043;-49
2022/03/26 01:16:05;;;;;;;36.08;27.90;;;;;;;10.05;55.21;99309.00;4915272;29;20028;-49
2022/03/26 01:18:32;;;;;;;37.53;29.42;;;;;;;10.13;55.38;99318.59;4915332;29;20414;-50
2022/03/26 01:20:58;;;;;;;41.20;28.50;;;;;;;10.52;54.82;99320.94;4915556;29;20032;-50
2022/03/26 01:23:23;;;;;;;35.78;25.98;;;;;;;10.89;53.34;99313.88;4913762;29;20051;-50
2022/03/26 01:25:49;;;;;;;44.28;29.52;;;;;;;10.64;53.35;99312.56;4913952;29;20160;-50
2022/03/26 01:28:15;;;;;;;33.05;26.88;;;;;;;10.69;54.03;99308.41;4913860;29;20032;-49
2022/03/26 01:30:41;;;;;;;40.10;28.10;;;;;;;10.72;53.84;99313.25;4915361;29;20403;-49
2022/03/26 01:33:07;;;;;;;35.70;27.75;;;;;;;10.87;53.97;99305.34;4918766;29;20054;-50
2022/03/26 01:35:32;;;;;;;34.25;28.88;;;;;;;11.22;52.83;99310.72;4918683;29;20435;-49
2022/03/26 01:38:01;;;;;;;43.40;29.65;;;;;;;11.46;52.40;99303.44;4918643;29;20120;-49
2022/03/26 01:40:28;;;;;;;41.58;29.88;;;;;;;11.38;51.99;99299.13;4917330;29;20065;-50
2022/03/26 01:42:54;;;;;;;35.13;28.67;;;;;;;11.11;52.51;99304.19;4918598;29;20028;-50
2022/03/26 01:45:20;;;;;;;38.55;30.42;;;;;;;11.07;52.96;99296.88;4918485;29;20028;-50
2022/03/26 01:47:46;;;;;;;37.13;26.70;;;;;;;11.19;52.90;99301.41;4917241;29;20482;-49
2022/03/26 01:50:12;;;;;;;34.80;27.02;;;;;;;11.25;52.16;99305.09;4918421;29;20024;-50
2022/03/26 01:52:38;;;;;;;35.65;27.00;;;;;;;11.33;52.15;99296.28;4918431;29;20455;-50
2022/03/26 01:55:05;;;;;;;42.65;28.98;;;;;;;11.36;52.10;99296.69;4918317;29;20506;-49
2022/03/26 01:57:31;;;;;;;35.40;25.40;;;;;;;11.27;52.47;99297.00;4918365;29;20099;-49
2022/03/26 01:59:58;;;;;;;40.05;28.98;;;;;;;11.27;52.53;99292.59;4918306;29;20562;-49
2022/03/26 02:02:24;;;;;;;42.13;30.08;;;;;;;11.44;51.84;99294.94;4916953;29;20403;-50
2022/03/26 02:04:50;;;;;;;32.30;27.75;;;;;;;11.49;51.53;99300.41;4918198;29;20024;-50
2022/03/26 02:07:16;;;;;;;35.72;26.83;;;;;;;11.54;51.39;99296.22;4918257;29;20024;-50
2022/03/26 02:09:43;;;;;;;49.75;28.48;;;;;;;11.59;51.28;99293.03;4916769;29;20024;-49
2022/03/26 02:12:26;;;;;;;35.30;27.35;;;;;;;11.62;50.78;99292.63;4918015;29;20039;-50
2022/03/26 02:14:53;;;;;;;40.80;31.08;;;;;;;11.54;50.78;99295.41;4918052;29;20393;-49
2022/03/26 02:17:19;;;;;;;39.90;29.92;;;;;;;11.18;51.21;99297.16;4917971;29;20515;-49
2022/03/26 02:19:50;;;;;;;35.58;27.38;;;;;;;10.65;52.54;99298.47;4917964;29;20028;-50
2022/03/26 02:22:17;;;;;;;43.15;28.83;;;;;;;10.16;53.35;99297.22;4916597;29;20486;-50
2022/03/26 02:24:42;;;;;;;36.85;29.48;;;;;;;9.94;54.21;99301.59;4916405;29;20094;-49
2022/03/26 02:27:09;;;;;;;36.83;26.30;;;;;;;9.74;55.02;99304.75;4917808;29;20052;-48
2022/03/26 02:29:34;;;;;;;41.05;29.02;;;;;;;9.61;55.17;99299.31;4917728;29;20406;-49
2022/03/26 02:32:01;;;;;;;38.72;28.55;;;;;;;9.48;55.41;99293.88;4917702;29;20032;-49
2022/03/26 02:34:27;;;;;;;38.95;29.77;;;;;;;9.49;55.57;99292.88;4917727;29;20108;-50
2022/03/26 02:36:57;;;;;;;33.67;27.65;;;;;;;9.69;55.26;99291.38;4916500;29;20027;-49
2022/03/26 02:39:23;;;;;;;33.95;25.88;;;;;;;9.92;54.81;99296.53;4917641;29;20032;-50
2022/03/26 02:41:48;;;;;;;36.35;29.08;;;;;;;9.89;54.74;99303.94;4916238;29;20087;-49
2022/03/26 02:44:14;;;;;;;36.08;28.27;;;;;;;9.63;54.90;99302.56;4916961;29;20509;-50
2022/03/26 02:46:40;;;;;;;35.63;28.67;;;;;;;9.44;56.33;99303.06;4917420;29;20079;-50
2022/03/26 02:49:06;;;;;;;39.72;27.30;;;;;;;9.37;56.52;99302.97;4916046;29;20109;-50
2022/03/26 02:51:32;;;;;;;37.17;28.55;;;;;;;9.49;56.72;99295.50;4916044;29;20036;-50
2022/03/26 02:53:57;;;;;;;37.95;27.98;;;;;;;9.46;56.44;99301.91;4917345;29;20099;-49
2022/03/26 02:56:23;;;;;;;37.58;28.23;;;;;;;9.49;55.92;99308.59;4917308;29;20025;-50
2022/03/26 02:58:49;;;;;;;40.03;28.48;;;;;;;9.45;55.85;99309.94;4917270;29;20050;-50
2022/03/26 03:01:16;;;;;;;37.08;27.65;;;;;;;9.33;56.06;99307.75;4915884;29;20514;-50
2022/03/26 03:03:41;;;;;;;35.75;26.65;;;;;;;9.27;56.38;99303.22;4917148;29;20099;-49
2022/03/26 03:06:07;;;;;;;40.15;32.97;;;;;;;9.38;55.93;99308.03;4917118;29;20116;-50
2022/03/26 03:08:33;;;;;;;37.47;25.45;;;;;;;9.51;55.91;99309.22;4915925;29;20043;-50
2022/03/26 03:10:59;;;;;;;38.30;27.20;;;;;;;9.53;55.66;99310.69;4915675;29;20043;-49
2022/03/26 03:13:25;;;;;;;35.55;25.58;;;;;;;9.51;55.34;99304.81;4917019;29;20020;-50
2022/03/26 03:15:52;;;;;;;41.63;25.90;;;;;;;9.45;55.69;99304.72;4917200;29;20103;-50
2022/03/26 03:18:18;;;;;;;38.55;25.95;;;;;;;9.42;55.59;99303.25;4916902;29;20107;-50
2022/03/26 03:20:45;;;;;;;56.15;41.88;;;;;;;9.38;55.87;99304.59;4915528;29;20044;-49
2022/03/26 03:23:13;;;;;;;36.13;26.42;;;;;;;9.45;55.85;99305.50;4916787;29;20052;-48
2022/03/26 03:25:39;;;;;;;39.28;25.55;;;;;;;9.50;55.50;99297.94;4916737;29;20099;-50
2022/03/26 03:28:05;;;;;;;34.22;25.58;;;;;;;9.55;55.38;99303.44;4916720;29;20380;-49
2022/03/26 03:30:31;;;;;;;35.92;28.67;;;;;;;9.55;55.45;99302.66;4915300;29;20068;-50
2022/03/26 03:32:57;;;;;;;35.70;28.27;;;;;;;9.34;55.69;99301.53;4916618;29;20035;-49
2022/03/26 03:35:22;;;;;;;39.03;29.63;;;;;;;9.21;56.45;99303.91;4915281;29;20084;-50
2022/03/26 03:37:49;;;;;;;40.75;28.25;;;;;;;9.23;56.45;99307.16;4916497;29;20028;-50
2022/03/26 03:40:15;;;;;;;37.58;26.70;;;;;;;9.40;56.07;99308.69;4915187;29;20111;-49
2022/03/26 03:42:40;;;;;;;32.72;26.80;;;;;;;9.54;56.34;99299.22;4916433;29;20111;-49
2022/03/26 03:45:09;;;;;;;37.22;26.88;;;;;;;9.65;55.50;99312.88;4916441;29;20024;-49
2022/03/26 03:47:35;;;;;;;37.58;28.75;;;;;;;9.62;55.56;99305.34;4915095;29;20035;-49
2022/03/26 03:50:00;;;;;;;37.13;28.77;;;;;;;9.64;55.79;99311.22;4914929;29;20373;-50
2022/03/26 03:52:26;;;;;;;37.53;26.33;;;;;;;9.69;55.75;99312.34;4916337;29;20454;-50
2022/03/26 03:54:52;;;;;;;36.65;26.77;;;;;;;9.78;54.52;99308.66;4914180;29;20062;-50
2022/03/26 03:57:18;;;;;;;37.58;28.83;;;;;;;9.80;54.76;99311.09;4914909;29;20123;-50
2022/03/26 03:59:43;;;;;;;32.65;25.98;;;;;;;9.74;54.56;99323.09;4914926;29;20040;-49
2022/03/26 04:02:09;;;;;;;36.67;26.98;;;;;;;9.56;54.56;99322.63;4915147;29;20067;-49
2022/03/26 04:04:44;;;;;;;36.35;25.30;;;;;;;9.46;55.26;99315.00;4916078;29;20020;-49
2022/03/26 04:07:10;;;;;;;36.30;25.65;;;;;;;9.56;55.18;99320.00;4914874;29;20036;-49
2022/03/26 04:09:37;;;;;;;47.60;35.95;;;;;;;9.60;55.20;99323.91;4914655;29;20039;-49
2022/03/26 04:12:04;;;;;;;33.30;27.45;;;;;;;9.63;54.41;99320.09;4915981;29;20106;-49
2022/03/26 04:14:31;;;;;;;34.35;24.83;;;;;;;9.50;54.94;99320.72;4916036;29;20031;-49
2022/03/26 04:16:57;;;;;;;45.30;27.50;;;;;;;9.18;55.62;99320.81;4915918;29;20024;-48
2022/03/26 04:19:23;;;;;;;38.58;27.52;;;;;;;8.87;56.69;99338.34;4914623;29;20095;-49
2022/03/26 04:21:49;;;;;;;41.08;28.88;;;;;;;8.76;56.47;99334.34;4914485;29;20041;-49
2022/03/26 04:24:16;;;;;;;36.47;26.05;;;;;;;8.75;57.11;99328.31;4914388;29;20052;-49
2022/03/26 04:26:43;;;;;;;40.28;30.55;;;;;;;8.84;57.01;99331.69;4915793;29;20097;-49
2022/03/26 04:29:08;;;;;;;41.83;27.63;;;;;;;8.82;56.55;99331.03;4914424;29;20131;-50
2022/03/26 04:31:34;;;;;;;36.38;27.63;;;;;;;8.62;56.55;99335.06;4915679;29;20550;-50
2022/03/26 04:34:01;;;;;;;39.55;24.73;;;;;;;8.40;57.82;99326.97;4914449;29;20086;-49
2022/03/26 04:36:29;;;;;;;41.17;30.08;;;;;;;8.32;57.89;99329.63;4915651;29;20529;-49
2022/03/26 04:38:56;;;;;;;31.95;26.58;;;;;;;8.13;58.28;99336.88;4914315;29;20028;-50
2022/03/26 04:41:22;;;;;;;36.03;24.80;;;;;;;8.09;58.54;99339.97;4914336;29;20060;-49
2022/03/26 04:43:47;;;;;;;38.33;29.10;;;;;;;8.24;58.34;99343.53;4915634;29;20135;-50
2022/03/26 04:46:13;;;;;;;40.80;28.15;;;;;;;8.42;57.72;99340.72;4914264;29;20028;-49
2022/03/26 04:48:39;;;;;;;33.60;25.55;;;;;;;8.66;57.37;99338.97;4914259;29;20040;-50
2022/03/26 04:51:05;;;;;;;33.22;25.05;;;;;;;8.91;56.50;99343.06;4914182;29;20107;-49
2022/03/26 04:53:30;;;;;;;33.35;24.10;;;;;;;9.07;55.70;99338.72;4914158;29;20032;-49
2022/03/26 04:55:56;;;;;;;31.10;22.90;;;;;;;8.97;55.72;99344.19;4914251;29;20027;-49
2022/03/26 04:58:22;;;;;;;32.70;23.58;;;;;;;8.64;56.04;99348.81;4914261;29;20553;-50
2022/03/26 05:00:47;;;;;;;34.83;22.70;;;;;;;8.37;57.30;99353.44;4915452;29;20520;-49
2022/03/26 05:03:13;;;;;;;36.65;22.80;;;;;;;8.56;56.52;99360.91;4914170;29;20130;-49
2022/03/26 05:05:39;;;;;;;35.38;21.70;;;;;;;8.80;56.41;99348.72;4914115;29;20083;-50
2022/03/26 05:08:05;;;;;;;33.22;21.23;;;;;;;8.83;55.45;99358.00;4919193;29;20107;-49
2022/03/26 05:10:31;;;;;;;37.63;23.33;;;;;;;8.73;55.80;99358.22;4919103;29;20372;-49
2022/03/26 05:12:58;;;;;;;27.42;20.73;;;;;;;8.72;56.06;99360.03;4919156;29;20512;-49
2022/03/26 05:15:29;;;;;;;34.25;24.13;;;;;;;8.69;55.61;99352.53;4917840;29;20047;-49
2022/03/26 05:17:56;;;;;;;29.15;21.67;;;;;;;8.49;55.95;99352.16;4917919;29;20043;-49
2022/03/26 05:20:23;;;;;;;37.83;25.33;;;;;;;8.36;56.33;99350.03;4917756;29;20016;-49
2022/03/26 05:22:50;;;;;;;29.83;21.00;;;;;;;8.27;56.33;99360.66;4918851;29;20088;-49
2022/03/26 05:25:17;;;;;;;36.42;20.50;;;;;;;8.27;57.46;99358.06;4918998;29;20084;-49
2022/03/26 05:27:48;;;;;;;29.40;22.63;;;;;;;8.43;56.75;99354.59;4918912;29;20045;-50
2022/03/26 05:30:14;;;;;;;29.63;20.88;;;;;;;8.38;56.25;99357.69;4918872;29;20075;-49
2022/03/26 05:32:40;;;;;;;31.83;21.98;;;;;;;8.33;56.35;99363.44;4918804;29;20075;-49
2022/03/26 05:35:11;;;;;;;31.65;20.80;;;;;;;8.31;57.19;99362.81;4917475;29;20119;-49
2022/03/26 05:37:41;;;;;;;29.83;22.83;;;;;;;8.31;57.05;99361.97;4918812;29;20494;-49
2022/03/26 05:40:09;;;;;;;28.35;21.75;;;;;;;8.36;57.11;99370.94;4917356;29;20028;-49
2022/03/26 05:42:35;;;;;;;32.42;24.27;;;;;;;8.51;57.20;99370.25;4917344;29;20043;-49
2022/03/26 05:45:03;;;;;;;33.47;25.67;;;;;;;8.65;56.75;99366.91;4917311;29;20063;-49
2022/03/26 05:47:30;;;;;;;29.80;22.02;;;;;;;8.86;55.80;99370.78;4918572;29;20024;-49
2022/03/26 05:49:56;;;;;;;43.63;28.75;;;;;;;9.29;54.75;99371.94;4918475;29;20498;-50
2022/03/26 05:52:22;;;;;;;28.70;21.70;;;;;;;9.84;53.21;99374.44;4918466;29;20031;-49
2022/03/26 05:54:47;;;;;;;30.90;22.33;;;;;;;10.16;52.23;99371.50;4918501;29;20393;-49
2022/03/26 05:57:13;;;;;;;29.02;20.20;;;;;;;10.51;51.35;99378.84;4918371;29;20020;-49
2022/03/26 05:59:39;;;;;;;26.67;20.55;;;;;;;10.53;50.40;99382.13;4917033;29;20118;-50
2022/03/26 06:02:05;;;;;;;27.05;20.38;;;;;;;10.49;50.42;99381.66;4918326;29;20390;-50
2022/03/26 06:04:31;;;;;;;25.05;20.08;;;;;;;10.26;50.63;99378.28;4918247;29;20032;-49
2022/03/26 06:06:57;;;;;;;35.80;27.58;;;;;;;9.89;51.69;99388.66;4916920;29;20506;-49
2022/03/26 06:09:22;;;;;;;36.55;24.00;;;;;;;9.74;52.54;99387.81;4916848;29;20028;-49
2022/03/26 06:11:48;;;;;;;32.75;22.98;;;;;;;9.99;52.12;99393.66;4916853;29;20021;-50
2022/03/26 06:14:16;;;;;;;39.90;24.02;;;;;;;10.22;51.38;99396.19;4916816;29;20500;-50
2022/03/26 06:16:42;;;;;;;41.15;22.77;;;;;;;10.54;51.33;99389.81;4916731;29;20036;-50
2022/03/26 06:19:08;;;;;;;30.73;24.23;;;;;;;10.81;50.18;99391.94;4915783;29;20439;-48
2022/03/26 06:21:34;;;;;;;31.85;21.92;;;;;;;10.86;50.17;99393.00;4917875;29;20028;-50
2022/03/26 06:24:00;;;;;;;35.03;22.17;;;;;;;11.03;49.66;99398.84;4917709;29;20036;-49
2022/03/26 06:26:26;;;;;;;29.73;21.27;;;;;;;11.28;49.31;99403.75;4917842;29;20111;-49
2022/03/26 06:28:54;;;;;;;32.25;21.58;;;;;;;11.39;49.23;99403.28;4917841;29;20026;-50
2022/03/26 06:31:20;;;;;;;31.70;21.98;;;;;;;11.99;48.34;99403.78;4917700;29;20024;-50
2022/03/26 06:33:45;;;;;;;29.70;20.90;;;;;;;12.72;47.11;99406.03;4917778;29;20025;-50
2022/03/26 06:36:13;;;;;;;27.45;20.92;;;;;;;13.34;46.18;99405.03;4916408;29;20055;-50
2022/03/26 06:38:41;;;;;;;32.75;23.65;;;;;;;13.96;44.72;99404.84;4916358;29;20024;-50
2022/03/26 06:41:09;;;;;;;33.42;22.27;;;;;;;14.14;43.48;99407.66;4917541;29;20050;-50
2022/03/26 06:43:39;;;;;;;48.65;32.92;;;;;;;14.24;43.27;99401.16;4916221;29;20038;-50
2022/03/26 06:46:05;;;;;;;72.45;44.70;;;;;;;14.43;42.33;99410.03;4916188;29;20392;-50
2022/03/26 06:48:32;;;;;;;65.40;41.25;;;;;;;14.77;41.89;99401.81;4917468;29;20039;-49
2022/03/26 06:51:00;;;;;;;31.67;24.75;;;;;;;15.31;40.97;99407.66;4917361;29;20020;-51
2022/03/26 06:53:30;;;;;;;33.33;24.75;;;;;;;15.89;39.99;99409.25;4917367;29;20101;-50
2022/03/26 06:55:56;;;;;;;47.83;32.63;;;;;;;16.37;39.46;99411.25;4916315;29;20411;-50
2022/03/26 06:58:22;;;;;;;61.47;38.35;;;;;;;16.87;38.69;99407.66;4917317;29;20025;-50
2022/03/26 07:00:48;;;;;;;42.17;29.77;;;;;;;17.37;36.93;99399.41;4915942;29;20411;-50
2022/03/26 07:03:13;;;;;;;27.58;21.52;;;;;;;17.25;35.91;99400.44;4917193;29;20028;-50
2022/03/26 07:05:39;;;;;;;25.65;21.00;;;;;;;16.81;35.92;99405.91;4917144;29;20024;-50
2022/03/26 07:08:05;;;;;;;35.67;21.38;;;;;;;16.61;36.93;99398.16;4915827;29;20028;-49
2022/03/26 07:10:31;;;;;;;25.60;20.35;;;;;;;17.39;35.87;99403.69;4915684;29;20020;-50
2022/03/26 07:12:57;;;;;;;38.70;23.73;;;;;;;18.00;34.87;99394.56;4917019;29;20027;-50
2022/03/26 07:15:23;;;;;;;30.17;19.30;;;;;;;18.53;33.50;99396.25;4916984;29;20028;-50
2022/03/26 07:17:49;;;;;;;25.02;19.05;;;;;;;19.18;33.47;99396.97;4915636;29;20472;-50
2022/03/26 07:20:14;;;;;;;28.02;20.17;;;;;;;19.53;31.94;99393.28;4916870;29;20039;-51
2022/03/26 07:22:44;;;;;;;24.50;19.83;;;;;;;19.49;32.64;99398.28;4916648;29;20057;-51
2022/03/26 07:25:10;;;;;;;29.17;20.08;;;;;;;19.88;31.46;99397.56;4915539;29;20414;-51
2022/03/26 07:27:37;;;;;;;24.33;21.63;;;;;;;20.06;31.26;99407.16;4915470;29;20032;-50
2022/03/26 07:30:05;;;;;;;30.27;20.52;;;;;;;20.20;31.04;99404.97;4915237;29;20511;-50
2022/03/26 07:32:30;;;;;;;21.52;17.45;;;;;;;20.71;30.06;99397.66;4916643;29;20111;-51
2022/03/26 07:34:56;;;;;;;25.50;18.52;;;;;;;20.10;30.42;99414.44;4916621;29;20048;-51
2022/03/26 07:37:23;;;;;;;21.33;17.58;;;;;;;19.38;31.66;99412.47;4916582;29;20482;-50
2022/03/26 07:39:48;;;;;;;22.17;18.50;;;;;;;18.87;32.30;99409.66;4916545;29;20115;-50
2022/03/26 07:42:14;;;;;;;30.25;19.38;;;;;;;18.87;32.84;99403.56;4915173;29;20040;-51
2022/03/26 07:44:40;;;;;;;23.73;18.77;;;;;;;19.27;32.50;99406.16;4916447;29;20072;-51
2022/03/26 07:47:06;;;;;;;30.38;21.27;;;;;;;20.64;31.22;99405.00;4916427;29;20036;-51
2022/03/26 07:49:32;;;;;;;30.30;21.23;;;;;;;21.25;29.92;99407.53;4915010;29;20380;-51
2022/03/26 07:51:58;;;;;;;24.23;18.95;;;;;;;21.89;29.25;99407.56;4915028;29;20059;-51
2022/03/26 07:54:24;;;;;;;24.92;21.10;;;;;;;21.98;28.87;99415.91;4915041;29;20063;-51
2022/03/26 07:56:49;;;;;;;23.77;19.83;;;;;;;21.81;28.71;99410.72;4914984;29;20028;-51
2022/03/26 07:59:15;;;;;;;28.50;19.35;;;;;;;21.88;28.73;99416.63;4914932;29;20032;-50
2022/03/26 08:01:41;;;;;;;22.08;17.92;;;;;;;22.74;27.52;99417.41;4916188;29;20028;-52
2022/03/26 08:04:07;;;;;;;27.58;19.30;;;;;;;23.05;27.55;99415.63;4916404;29;20036;-51
2022/03/26 08:06:33;;;;;;;26.23;19.00;;;;;;;23.57;26.84;99411.13;4914835;29;20031;-51
2022/03/26 08:08:59;;;;;;;24.77;19.13;;;;;;;24.14;25.63;99406.53;4916102;29;20056;-51
2022/03/26 08:11:25;;;;;;;26.25;19.35;;;;;;;24.58;25.32;99416.63;4915983;29;20435;-51
2022/03/26 08:13:50;;;;;;;26.42;18.88;;;;;;;25.35;24.64;99410.03;4916007;29;20402;-51
2022/03/26 08:16:16;;;;;;;23.02;19.65;;;;;;;26.29;23.63;99407.03;4915937;29;20024;-50
2022/03/26 08:18:44;;;;;;;26.95;20.27;;;;;;;26.82;22.94;99400.75;4915970;29;20558;-50
2022/03/26 08:21:10;;;;;;;24.05;18.75;;;;;;;27.47;22.41;99406.28;4915867;29;20107;-50
2022/03/26 08:23:36;;;;;;;24.67;19.25;;;;;;;27.23;22.28;99408.25;4915744;29;20124;-50
2022/03/26 08:28:50;;;;;;;25.48;19.55;;;;;;;24.58;24.62;99418.50;4915904;29;20479;-51
2022/03/26 08:31:17;;;;;;;31.08;20.95;;;;;;;23.85;25.65;99411.69;4914373;29;20032;-51
2022/03/26 08:33:44;;;;;;;24.83;22.10;;;;;;;23.36;26.73;99412.19;4915770;29;20132;-52
2022/03/26 08:36:10;;;;;;;29.05;23.80;;;;;;;24.09;25.78;99411.91;4914385;29;20024;-51
2022/03/26 08:38:37;;;;;;;27.55;22.80;;;;;;;24.73;24.95;99413.09;4914434;29;20020;-51
2022/03/26 08:41:03;;;;;;;36.42;32.22;;;;;;;24.97;24.43;99409.72;4913873;29;20032;-51
2022/03/26 08:43:29;;;;;;;32.33;25.13;;;;;;;25.40;24.08;99410.81;4914329;29;20024;-50
2022/03/26 08:45:55;;;;;;;32.17;27.80;;;;;;;26.05;23.20;99410.50;4914306;29;20474;-51
2022/03/26 08:48:21;;;;;;;33.75;26.80;;;;;;;26.50;22.50;99413.78;4914600;29;20036;-51
2022/03/26 08:50:47;;;;;;;34.70;24.65;;;;;;;27.15;21.93;99404.31;4915465;29;20027;-51
2022/03/26 08:53:13;;;;;;;31.50;23.23;;;;;;;27.41;21.13;99407.47;4915535;29;20406;-51
2022/03/26 08:55:39;;;;;;;32.88;24.30;;;;;;;28.12;20.82;99403.84;4914235;29;20079;-50
2022/03/26 08:58:07;;;;;;;26.38;23.52;;;;;;;28.01;20.85;99404.03;4914191;29;20095;-51
2022/03/26 09:00:34;;;;;;;24.77;22.02;;;;;;;28.59;20.43;99391.81;4930001;29;20069;-51
2022/03/26 09:03:01;;;;;;;32.30;23.48;;;;;;;29.22;19.45;99386.69;4914187;29;20140;-51
2022/03/26 09:05:27;;;;;;;29.38;22.73;;;;;;;29.39;19.12;99396.81;4915490;29;20025;-51
2022/03/26 09:07:53;;;;;;;25.00;22.15;;;;;;;30.17;18.58;99385.63;4915438;29;20398;-51
2022/03/26 09:10:19;;;;;;;28.42;23.13;;;;;;;30.90;17.95;99385.97;4915336;29;20024;-51
2022/03/26 09:12:46;;;;;;;27.58;22.05;;;;;;;30.97;17.46;99388.19;4915454;29;20024;-51
2022/03/26 09:15:12;;;;;;;27.48;22.00;;;;;;;31.00;18.00;99382.13;4915356;29;20017;-51
2022/03/26 09:17:39;;;;;;;26.02;23.25;;;;;;;30.69;18.00;99380.34;4915348;29;20562;-51
2022/03/26 09:20:06;;;;;;;28.02;23.52;;;;;;;30.59;17.96;99383.38;4915274;29;20039;-51
2022/03/26 09:22:32;;;;;;;24.95;22.02;;;;;;;30.85;17.67;99389.59;4915075;29;20028;-51
2022/03/26 09:24:59;;;;;;;32.65;26.23;;;;;;;31.23;17.60;99385.47;4915321;29;20623;-51
2022/03/26 09:27:26;;;;;;;34.00;23.90;;;;;;;31.41;17.35;99391.66;4913922;29;20056;-51
2022/03/26 09:29:52;;;;;;;27.10;22.88;;;;;;;31.49;17.40;99390.88;4915143;29;20471;-52
2022/03/26 09:32:18;;;;;;;25.17;22.48;;;;;;;31.43;17.40;99384.00;4929757;29;20028;-52
2022/03/26 09:34:44;;;;;;;26.15;23.50;;;;;;;31.16;17.79;99383.25;4915257;29;20107;-52
2022/03/26 09:37:11;;;;;;;26.67;23.27;;;;;;;30.84;17.97;99388.00;4915201;29;20028;-51
2022/03/26 09:39:37;;;;;;;26.55;23.73;;;;;;;30.77;18.12;99382.28;4915233;29;20028;-51
2022/03/26 09:42:04;;;;;;;27.15;22.98;;;;;;;31.02;17.89;99385.34;4913799;29;20032;-52
2022/03/26 09:44:35;;;;;;;35.17;23.15;;;;;;;31.26;17.42;99382.91;4913837;29;20083;-52
2022/03/26 09:47:03;;;;;;;35.55;23.77;;;;;;;31.61;16.88;99382.06;4915151;29;20032;-51
2022/03/26 09:49:29;;;;;;;30.25;24.00;;;;;;;31.94;16.84;99367.94;4913735;29;20032;-52
2022/03/26 09:51:56;;;;;;;30.17;23.45;;;;;;;32.26;16.12;99377.38;4913801;29;20028;-51
2022/03/26 09:54:25;;;;;;;34.53;24.30;;;;;;;32.73;15.95;99374.53;4917416;29;20021;-52
2022/03/26 09:56:51;;;;;;;36.85;24.02;;;;;;;32.83;15.62;99370.63;4917158;29;20115;-52
2022/03/26 09:59:21;;;;;;;25.77;23.00;;;;;;;33.30;15.41;99369.59;4918351;29;20020;-52
2022/03/26 10:01:48;;;;;;;28.73;24.23;;;;;;;33.63;14.78;99369.59;4918333;29;20036;-52
2022/03/26 10:04:16;;;;;;;32.90;23.48;;;;;;;33.18;16.09;99375.78;4918317;29;20024;-52
2022/03/26 10:07:02;;;;;;;29.52;25.42;;;;;;;32.76;15.55;99379.31;4918273;29;20032;-51
2022/03/26 10:09:39;;;;;;;29.48;25.00;;;;;;;32.52;15.75;99366.34;4916691;29;20450;-52
2022/03/26 10:12:15;;;;;;;29.13;24.00;;;;;;;33.20;15.44;99368.88;4918194;29;20032;-51
2022/03/26 10:14:59;;;;;;;29.15;23.95;;;;;;;34.15;14.65;99365.47;4918261;29;20060;-51
2022/03/26 10:17:33;;;;;;;30.67;24.37;;;;;;;34.07;14.89;99369.03;4918253;29;20040;-52
2022/03/26 10:20:00;;;;;;;28.40;23.80;;;;;;;34.44;14.35;99361.66;4916794;29;20767;-51
2022/03/26 10:22:29;;;;;;;32.30;23.58;;;;;;;34.70;13.77;99360.50;4916470;29;20076;-51
2022/03/26 10:24:56;;;;;;;30.55;21.88;;;;;;;34.76;13.79;99357.16;4917870;29;20040;-52
2022/03/26 10:27:22;;;;;;;27.73;24.85;;;;;;;35.14;13.42;99350.44;4916601;29;20092;-51
2022/03/26 10:29:53;;;;;;;29.67;23.17;;;;;;;35.28;13.28;99350.03;4916519;29;20040;-52
2022/03/26 10:32:40;;;;;;;27.80;23.58;;;;;;;35.69;12.96;99347.19;4917794;29;20110;-52
2022/03/26 10:35:07;;;;;;;26.33;22.83;;;;;;;36.15;12.60;99347.53;4917784;29;20052;-51
2022/03/26 10:38:03;;;;;;;29.85;21.35;;;;;;;36.36;12.42;99347.19;4917737;29;20038;-52
2022/03/26 10:40:37;;;;;;;29.65;23.50;;;;;;;36.21;12.30;99346.09;4917779;29;20506;-52
2022/03/26 10:43:14;;;;;;;38.10;34.40;;;;;;;35.46;12.40;99342.31;4916275;29;20502;-51
2022/03/26 10:45:55;;;;;;;29.10;23.83;;;;;;;34.12;13.09;99344.28;4916275;29;20659;-52
2022/03/26 10:48:30;;;;;;;27.75;24.75;;;;;;;33.20;14.17;99344.41;4917576;29;20039;-52
2022/03/26 10:50:58;;;;;;;32.28;23.80;;;;;;;33.66;14.22;99344.41;4917424;29;20032;-51
2022/03/26 10:53:36;;;;;;;26.17;21.85;;;;;;;34.34;13.44;99330.22;4916141;29;20115;-52
2022/03/26 10:56:13;;;;;;;25.23;22.58;;;;;;;34.93;12.80;99336.19;4916135;29;20094;-52
2022/03/26 10:58:41;;;;;;;36.20;32.60;;;;;;;35.40;12.65;99330.84;4916115;29;20048;-52
2022/03/26 11:01:07;;;;;;;25.75;23.20;;;;;;;35.58;12.54;99323.13;4915969;29;20119;-52
2022/03/26 11:03:34;;;;;;;26.00;23.23;;;;;;;35.64;12.57;99320.09;4917099;29;20506;-51
2022/03/26 11:06:01;;;;;;;30.33;23.80;;;;;;;35.32;12.68;99317.38;4917044;29;20561;-52
2022/03/26 11:08:34;;;;;;;44.03;29.95;;;;;;;34.73;12.89;99316.16;4915860;29;20079;-52
2022/03/26 11:11:05;;;;;;;41.65;33.63;;;;;;;34.27;13.75;99326.47;4917086;29;20025;-51
2022/03/26 11:13:34;;;;;;;26.90;22.63;;;;;;;34.49;13.39;99317.00;4915758;29;20573;-51
2022/03/26 11:16:03;;;;;;;28.48;23.38;;;;;;;35.15;12.74;99307.56;4916985;29;20020;-51
2022/03/26 11:18:41;;;;;;;26.30;23.45;;;;;;;35.44;12.59;99308.31;4915643;29;20032;-51
2022/03/26 11:21:17;;;;;;;38.38;25.05;;;;;;;35.61;12.53;99308.75;4916908;29;20395;-51